地図

経路データ

SID SEASON NUMBER BASIN SUBBASIN NAME ISO_TIME NATURE LAT LON WMO_WIND WMO_PRES WMO_AGENCY TRACK_TYPE DIST2LAND LANDFALL IFLAG USA_AGENCY USA_ATCF_ID USA_LAT USA_LON USA_RECORD USA_STATUS USA_WIND USA_PRES USA_SSHS USA_R34_NE USA_R34_SE USA_R34_SW USA_R34_NW USA_R50_NE USA_R50_SE USA_R50_SW USA_R50_NW USA_R64_NE USA_R64_SE USA_R64_SW USA_R64_NW USA_POCI USA_ROCI USA_RMW USA_EYE TOKYO_LAT TOKYO_LON TOKYO_GRADE TOKYO_WIND TOKYO_PRES TOKYO_R50_DIR TOKYO_R50_LONG TOKYO_R50_SHORT TOKYO_R30_DIR TOKYO_R30_LONG TOKYO_R30_SHORT TOKYO_LAND CMA_LAT CMA_LON CMA_CAT CMA_WIND CMA_PRES HKO_LAT HKO_LON HKO_CAT HKO_WIND HKO_PRES NEWDELHI_LAT NEWDELHI_LON NEWDELHI_GRADE NEWDELHI_WIND NEWDELHI_PRES NEWDELHI_CI NEWDELHI_DP NEWDELHI_POCI REUNION_LAT REUNION_LON REUNION_TYPE REUNION_WIND REUNION_PRES REUNION_TNUM REUNION_CI REUNION_RMW REUNION_R34_NE REUNION_R34_SE REUNION_R34_SW REUNION_R34_NW REUNION_R50_NE REUNION_R50_SE REUNION_R50_SW REUNION_R50_NW REUNION_R64_NE REUNION_R64_SE REUNION_R64_SW REUNION_R64_NW BOM_LAT BOM_LON BOM_TYPE BOM_WIND BOM_PRES BOM_TNUM BOM_CI BOM_RMW BOM_R34_NE BOM_R34_SE BOM_R34_SW BOM_R34_NW BOM_R50_NE BOM_R50_SE BOM_R50_SW BOM_R50_NW BOM_R64_NE BOM_R64_SE BOM_R64_SW BOM_R64_NW BOM_ROCI BOM_POCI BOM_EYE BOM_POS_METHOD BOM_PRES_METHOD NADI_LAT NADI_LON NADI_CAT NADI_WIND NADI_PRES WELLINGTON_LAT WELLINGTON_LON WELLINGTON_WIND WELLINGTON_PRES DS824_LAT DS824_LON DS824_STAGE DS824_WIND DS824_PRES TD9636_LAT TD9636_LON TD9636_STAGE TD9636_WIND TD9636_PRES TD9635_LAT TD9635_LON TD9635_WIND TD9635_PRES TD9635_ROCI NEUMANN_LAT NEUMANN_LON NEUMANN_CLASS NEUMANN_WIND NEUMANN_PRES MLC_LAT MLC_LON MLC_CLASS MLC_WIND MLC_PRES USA_GUST BOM_GUST BOM_GUST_PER REUNION_GUST REUNION_GUST_PER USA_SEAHGT USA_SEARAD_NE USA_SEARAD_SE USA_SEARAD_SW USA_SEARAD_NW STORM_SPEED STORM_DIR
1925328N09086 1925 59 NI BB NOT_NAMED 1925-11-24 00:00:00 TS 8.50000 85.9000 main 462 462 _________O____ -1 8.50000 85.9000 TC 34 0 0
1925328N09086 1925 59 NI BB NOT_NAMED 1925-11-24 03:00:00 TS 8.50000 85.9000 main 462 462 _________PO___ -1 8.50000 85.9000 TC 36 8.50000 85.9000 2 0 0
1925328N09086 1925 59 NI BB NOT_NAMED 1925-11-24 06:00:00 TS 8.51125 85.8963 main 462 462 _________OP___ -1 8.50000 85.9000 TC 39 8.52813 85.8907 2 0 0
1925328N09086 1925 59 NI BB NOT_NAMED 1925-11-24 09:00:00 TS 8.51929 85.8936 main 462 462 _________PP___ -1 8.50000 85.9000 TC 42 8.54501 85.8851 2 0 0
1925328N09086 1925 59 NI BB NOT_NAMED 1925-11-24 12:00:00 TS 8.51969 85.8935 main 462 462 _________OP___ -1 8.50000 85.9000 TC 45 8.53938 85.8869 2 0 0
1925328N09086 1925 59 NI BB NOT_NAMED 1925-11-24 15:00:00 TS 8.50000 85.9000 main 462 462 _________PO___ -1 8.50000 85.9000 TC 45 8.50000 85.9000 3 1 0
1925328N09086 1925 59 NI BB NOT_NAMED 1925-11-24 18:00:00 TS 8.46343 85.9121 main 462 460 _________OP___ -1 8.50000 85.9000 TC 45 8.42687 85.9242 3 1 154
1925328N09086 1925 59 NI BB NOT_NAMED 1925-11-24 21:00:00 TS 8.40624 85.9299 main 460 460 _________PP___ -1 8.44750 85.9150 TC 45 8.36499 85.9447 3 0 135
1925328N09086 1925 59 NI BB NOT_NAMED 1925-11-25 00:00:00 TS 8.43531 85.9214 main 460 460 _________OP___ -1 8.50000 85.9000 TC 45 8.37061 85.9429 3 2 343
1925328N09086 1925 59 NI BB NOT_NAMED 1925-11-25 03:00:00 TS 8.63375 85.8650 main 465 457 _________PO___ -1 8.76750 85.8299 TC 45 8.50000 85.9000 3 6 344
1925328N09086 1925 59 NI BB NOT_NAMED 1925-11-25 06:00:00 TS 9.01439 85.7507 main 467 457 _________OP___ -1 9.20000 85.7000 TC 45 8.82878 85.8014 3 9 342
1925328N09086 1925 59 NI BB NOT_NAMED 1925-11-25 09:00:00 TS 9.50754 85.5839 main 469 464 _________PP___ -1 9.73503 85.5076 TC 45 9.28006 85.6601 3 11 341
1925328N09086 1925 59 NI BB NOT_NAMED 1925-11-25 12:00:00 TS 10.0457 85.3944 main 473 473 _________OP___ -1 10.3000 85.3000 TC 45 9.79130 85.4888 3 11 341
1925328N09086 1925 59 NI BB NOT_NAMED 1925-11-25 15:00:00 TS 10.5400 85.2287 main 478 478 _________PO___ -1 10.7799 85.1574 TC 45 10.3000 85.3000 3 10 341
1925328N09086 1925 59 NI BB NOT_NAMED 1925-11-25 18:00:00 TS 10.9774 85.0633 main 499 489 _________OP___ -1 11.2000 85.0000 TC 45 10.7549 85.1266 3 9 336
1925328N09086 1925 59 NI BB NOT_NAMED 1925-11-25 21:00:00 TS 11.3887 84.8513 main 505 487 _________PP___ -1 11.5875 84.7650 TC 45 11.1898 84.9376 3 9 330
1925328N09086 1925 59 NI BB NOT_NAMED 1925-11-26 00:00:00 TS 11.7399 84.6149 main 487 460 _________OP___ -1 11.9000 84.5000 TC 45 11.5799 84.7298 3 8 324
1925328N09086 1925 59 NI BB NOT_NAMED 1925-11-26 03:00:00 TS 12.0187 84.3787 main 460 425 _________PO___ -1 12.1375 84.2574 TC 45 11.9000 84.5000 3 7 315
1925328N09086 1925 59 NI BB NOT_NAMED 1925-11-26 06:00:00 TS 12.2170 84.1232 main 425 402 _________OP___ -1 12.3000 84.0000 TC 45 12.1340 84.2464 3 6 302
1925328N09086 1925 59 NI BB NOT_NAMED 1925-11-26 09:00:00 TS 12.3562 83.8361 main 391 368 _________PP___ -1 12.4150 83.7000 TC 45 12.2975 83.9723 3 6 293
1925328N09086 1925 59 NI BB NOT_NAMED 1925-11-26 12:00:00 TS 12.4561 83.5435 main 358 336 _________OP___ -1 12.5000 83.4000 TC 45 12.4122 83.6870 3 6 290
1925328N09086 1925 59 NI BB NOT_NAMED 1925-11-26 15:00:00 TS 12.5537 83.2750 main 334 303 _________PO___ -1 12.6074 83.1500 TC 45 12.5000 83.4000 3 6 290
1925328N09086 1925 59 NI BB NOT_NAMED 1925-11-26 18:00:00 TS 12.6503 83.0084 main 300 268 _________OP___ -1 12.7000 82.9000 TC 45 12.6006 83.1168 3 6 287
1925328N09086 1925 59 NI BB NOT_NAMED 1925-11-26 21:00:00 TS 12.7188 82.7137 main 268 234 _________PP___ -1 12.7575 82.5925 TC 45 12.6800 82.8349 3 6 282
1925328N09086 1925 59 NI BB NOT_NAMED 1925-11-27 00:00:00 TS 12.7722 82.4303 main 234 213 _________OP___ -1 12.8000 82.3000 TC 45 12.7444 82.5605 3 5 282
1925328N09086 1925 59 NI BB NOT_NAMED 1925-11-27 03:00:00 TS 12.8250 82.1962 main 213 189 _________PO___ -1 12.8499 82.0925 TC 45 12.8000 82.3000 3 5 284
1925328N09086 1925 59 NI BB NOT_NAMED 1925-11-27 06:00:00 TS 12.8806 81.9803 main 189 168 _________OP___ -1 12.9000 81.9000 TC 45 12.8611 82.0606 3 5 284
1925328N09086 1925 59 NI BB NOT_NAMED 1925-11-27 09:00:00 TS 12.9324 81.7425 main 158 134 _________PP___ -1 12.9500 81.6500 TC 45 12.9148 81.8349 3 5 282
1925328N09086 1925 59 NI BB NOT_NAMED 1925-11-27 12:00:00 TS 12.9806 81.5084 main 134 113 _________OP___ -1 13.0000 81.4000 TC 45 12.9611 81.6168 3 4 283
1925328N09086 1925 59 NI BB NOT_NAMED 1925-11-27 15:00:00 TS 13.0287 81.3000 main 113 89 _________PO___ -1 13.0574 81.2000 TC 41 13.0000 81.4000 3 4 281
1925328N09086 1925 59 NI BB NOT_NAMED 1925-11-27 18:00:00 TS 13.0610 81.1025 main 89 68 _________OP___ -1 13.1000 81.0000 TC 37 13.0317 81.1794 3 4 277
1925328N09086 1925 59 NI BB NOT_NAMED 1925-11-27 21:00:00 TS 13.0787 80.8780 main 68 48 _________PP___ -1 13.1101 80.7625 TC 33 13.0577 80.9550 3 4 273
1925328N09086 1925 59 NI BB NOT_NAMED 1925-11-28 00:00:00 TS 13.0866 80.6521 main 48 31 _________OP___ -1 13.1000 80.5000 TC 30 13.0799 80.7281 3 4 273
1925328N09086 1925 59 NI BB NOT_NAMED 1925-11-28 03:00:00 NR 13.1000 80.5000 main 31 __________O___ -1 TC 13.1000 80.5000 1 3 275

IBTrACS Databaseについて

本データベースは、米国NOAAが公開する1842年以降の世界の熱帯低気圧のベストトラックデータアーカイブInternational Best Track Archive for Climate Stewardship (IBTrACS)を、ウェブで閲覧しやすい形式に変換したものです。

最終更新日:2021-10-21